Time;durP1;ratioP1;P1;durP2;ratioP2;P2;SDS_P1;SDS_P2;PMS_P1;PMS_P2;Temp;Humidity;BMP_temperature;BMP_pressure;BME280_temperature;BME280_humidity;BME280_pressure;Samples;Min_cycle;Max_cycle;Signal;HPM_P1;HPM_P2
2023/10/27 00:02:28;;;;;;;;;;;17.50;66.60;;;;;;10245009;28;93858;-45
2023/10/27 00:07:30;;;;;;;;;;;17.50;66.60;;;;;;10234772;28;94988;-46
2023/10/27 00:12:32;;;;;;;;;;;17.50;66.50;;;;;;10216264;28;96302;-49
2023/10/27 00:17:34;;;;;;;;;;;17.50;66.50;;;;;;10231646;28;94823;-48
2023/10/27 00:22:35;;;;;;;;;;;17.50;66.40;;;;;;10194212;28;93771;-48
2023/10/27 00:27:37;;;;;;;;;;;17.50;66.30;;;;;;10236799;28;94004;-45
2023/10/27 00:32:40;;;;;;;;;;;17.50;66.30;;;;;;10231468;28;93987;-45
2023/10/27 00:37:42;;;;;;;;;;;17.50;66.30;;;;;;10215811;28;93087;-48
2023/10/27 00:42:44;;;;;;;;;;;17.50;66.20;;;;;;10226455;28;93717;-44
2023/10/27 00:47:46;;;;;;;;;;;17.50;66.10;;;;;;10215182;28;92591;-44
2023/10/27 00:52:49;;;;;;;;;;;17.50;66.20;;;;;;10232520;28;93868;-49
2023/10/27 00:57:52;;;;;;;;;;;17.50;66.20;;;;;;10206748;28;99123;-47
2023/10/27 01:02:54;;;;;;;;;;;17.40;66.00;;;;;;10629543;23;95270;-46
2023/10/27 01:07:56;;;;;;;;;;;17.40;66.00;;;;;;10222923;28;93325;-42
2023/10/27 01:12:58;;;;;;;;;;;17.40;65.80;;;;;;10234929;28;93036;-41
2023/10/27 01:17:59;;;;;;;;;;;17.50;65.20;;;;;;10232348;28;93390;-42
2023/10/27 01:23:02;;;;;;;;;;;17.50;64.90;;;;;;10219564;28;92871;-43
2023/10/27 01:28:06;;;;;;;;;;;17.50;64.50;;;;;;10233706;28;92990;-42
2023/10/27 01:33:08;;;;;;;;;;;17.50;63.80;;;;;;10236199;28;94020;-44
2023/10/27 01:38:09;;;;;;;;;;;17.50;63.40;;;;;;10212415;28;92931;-43
2023/10/27 01:43:11;;;;;;;;;;;17.50;63.00;;;;;;10242832;28;93135;-53
2023/10/27 01:48:13;;;;;;;;;;;17.50;62.70;;;;;;10229678;28;95279;-43
2023/10/27 01:53:15;;;;;;;;;;;17.50;62.80;;;;;;10222052;28;93795;-43
2023/10/27 01:58:17;;;;;;;;;;;17.50;62.90;;;;;;10235978;28;93952;-43
2023/10/27 02:03:19;;;;;;;;;;;17.40;63.30;;;;;;10242909;28;92940;-42
2023/10/27 02:08:21;;;;;;;;;;;17.40;63.10;;;;;;10222813;28;93128;-44
2023/10/27 02:13:23;;;;;;;;;;;17.40;62.60;;;;;;10245983;28;93364;-44
2023/10/27 02:18:25;;;;;;;;;;;17.40;62.20;;;;;;10243794;28;93800;-43
2023/10/27 02:23:27;;;;;;;;;;;17.50;62.10;;;;;;10229025;28;92880;-43
2023/10/27 02:28:28;;;;;;;;;;;17.50;61.80;;;;;;10235959;28;93946;-43
2023/10/27 02:33:30;;;;;;;;;;;17.40;61.30;;;;;;10240818;28;93867;-46
2023/10/27 02:38:32;;;;;;;;;;;17.50;61.20;;;;;;10240106;28;95804;-46
2023/10/27 02:43:34;;;;;;;;;;;17.50;60.90;;;;;;10200346;28;95519;-44
2023/10/27 02:48:36;;;;;;;;;;;17.40;61.30;;;;;;10224523;28;93301;-43
2023/10/27 02:53:37;;;;;;;;;;;17.40;61.70;;;;;;10230451;28;93151;-42
2023/10/27 02:58:39;;;;;;;;;;;17.40;62.10;;;;;;10219447;28;93921;-45
2023/10/27 03:03:41;;;;;;;;;;;17.40;61.80;;;;;;10224325;28;93370;-49
2023/10/27 03:08:43;;;;;;;;;;;17.40;61.40;;;;;;10208398;28;93445;-46
2023/10/27 03:13:45;;;;;;;;;;;17.40;61.10;;;;;;10222334;28;93122;-42
2023/10/27 03:18:48;;;;;;;;;;;17.40;60.80;;;;;;10205818;28;93700;-42
2023/10/27 03:23:49;;;;;;;;;;;17.40;60.70;;;;;;10234380;28;93454;-46
2023/10/27 03:28:52;;;;;;;;;;;17.40;60.40;;;;;;10209921;28;95534;-44
2023/10/27 03:33:54;;;;;;;;;;;17.40;60.30;;;;;;10207039;28;96166;-44
2023/10/27 03:38:56;;;;;;;;;;;17.40;60.10;;;;;;10219875;28;93476;-44
2023/10/27 03:43:58;;;;;;;;;;;17.40;60.50;;;;;;10225707;28;93782;-44
2023/10/27 03:48:59;;;;;;;;;;;17.30;60.90;;;;;;10248379;28;94035;-45
2023/10/27 03:54:01;;;;;;;;;;;17.30;61.20;;;;;;10228599;28;94857;-44
2023/10/27 03:59:03;;;;;;;;;;;17.30;60.80;;;;;;10246497;28;92976;-44
2023/10/27 04:04:05;;;;;;;;;;;17.40;60.60;;;;;;10219552;28;91976;-66
2023/10/27 04:09:07;;;;;;;;;;;17.40;60.40;;;;;;10235686;28;93326;-43
2023/10/27 04:14:09;;;;;;;;;;;17.40;60.10;;;;;;10233162;28;93274;-43
2023/10/27 04:19:11;;;;;;;;;;;17.40;59.80;;;;;;10228074;28;95165;-52
2023/10/27 04:24:16;;;;;;;;;;;17.40;59.60;;;;;;10244193;28;95124;-43
2023/10/27 04:29:18;;;;;;;;;;;17.40;59.40;;;;;;10230233;28;93107;-43
2023/10/27 04:34:20;;;;;;;;;;;17.40;59.20;;;;;;10226311;28;93184;-43
2023/10/27 04:39:22;;;;;;;;;;;17.40;59.70;;;;;;10223053;28;94618;-43
2023/10/27 04:44:25;;;;;;;;;;;17.40;60.10;;;;;;10233865;28;93013;-45
2023/10/27 04:49:26;;;;;;;;;;;17.30;60.40;;;;;;10221469;28;93207;-45
2023/10/27 04:54:28;;;;;;;;;;;17.40;60.00;;;;;;10231814;28;93892;-44
2023/10/27 04:59:30;;;;;;;;;;;17.40;59.80;;;;;;10232559;28;93362;-43
2023/10/27 05:04:32;;;;;;;;;;;17.40;59.80;;;;;;10240622;28;92915;-44
2023/10/27 05:09:34;;;;;;;;;;;17.40;59.60;;;;;;10234094;28;95547;-45
2023/10/27 05:14:36;;;;;;;;;;;17.40;59.40;;;;;;10221185;28;96242;-43
2023/10/27 05:19:38;;;;;;;;;;;17.40;59.30;;;;;;10223680;28;93924;-43
2023/10/27 05:24:40;;;;;;;;;;;17.40;59.30;;;;;;10238567;28;93517;-43
2023/10/27 05:29:42;;;;;;;;;;;17.40;59.20;;;;;;10229269;28;93755;-56
2023/10/27 05:34:44;;;;;;;;;;;17.40;59.80;;;;;;10243649;28;93124;-43
2023/10/27 05:39:46;;;;;;;;;;;17.40;60.10;;;;;;10242992;28;94464;-43
2023/10/27 05:44:48;;;;;;;;;;;17.40;60.40;;;;;;10231698;28;93718;-43
2023/10/27 05:49:53;;;;;;;;;;;17.40;60.20;;;;;;10238947;28;93848;-44
2023/10/27 05:54:55;;;;;;;;;;;17.40;60.00;;;;;;10218556;28;93787;-47
2023/10/27 05:59:57;;;;;;;;;;;17.40;60.00;;;;;;10227494;28;96801;-43
2023/10/27 06:04:59;;;;;;;;;;;17.40;59.70;;;;;;10231078;28;96148;-44
2023/10/27 06:10:00;;;;;;;;;;;17.40;59.60;;;;;;10232485;28;93933;-43
2023/10/27 06:15:03;;;;;;;;;;;17.40;59.40;;;;;;10214034;28;93362;-43
2023/10/27 06:20:05;;;;;;;;;;;17.40;59.40;;;;;;10231244;28;95601;-44
2023/10/27 06:25:18;;;;;;;;;;;17.40;59.40;;;;;;10231089;28;92773;-46
2023/10/27 06:30:20;;;;;;;;;;;17.30;59.70;;;;;;10233139;28;94539;-44
2023/10/27 06:35:22;;;;;;;;;;;17.30;60.20;;;;;;10237882;28;92795;-44
2023/10/27 06:40:24;;;;;;;;;;;17.30;60.70;;;;;;10229877;28;92722;-44
2023/10/27 06:45:26;;;;;;;;;;;17.30;60.60;;;;;;10232509;28;93257;-57
2023/10/27 06:50:28;;;;;;;;;;;17.30;60.50;;;;;;10223134;28;95764;-44
2023/10/27 06:55:30;;;;;;;;;;;17.30;60.30;;;;;;10214008;28;95155;-44
2023/10/27 07:00:31;;;;;;;;;;;17.30;60.20;;;;;;10229787;28;94342;-44
2023/10/27 07:05:33;;;;;;;;;;;17.40;60.10;;;;;;10232027;28;93895;-44
2023/10/27 07:10:35;;;;;;;;;;;17.40;60.10;;;;;;10197092;28;92824;-43
2023/10/27 07:15:37;;;;;;;;;;;17.40;60.00;;;;;;10237257;28;95241;-42
2023/10/27 07:20:39;;;;;;;;;;;17.40;60.00;;;;;;10231825;28;92799;-44
2023/10/27 07:25:41;;;;;;;;;;;17.30;60.20;;;;;;10237814;28;93229;-43
2023/10/27 07:30:43;;;;;;;;;;;17.30;60.80;;;;;;10236094;28;93060;-41
2023/10/27 07:35:47;;;;;;;;;;;17.30;62.70;;;;;;10230145;28;92787;-44
2023/10/27 07:40:49;;;;;;;;;;;17.40;63.20;;;;;;10214671;28;95008;-43
2023/10/27 07:45:54;;;;;;;;;;;17.40;63.30;;;;;;10221299;28;96257;-42
2023/10/27 07:50:57;;;;;;;;;;;17.40;64.00;;;;;;10241105;28;94760;-46
2023/10/27 07:55:59;;;;;;;;;;;17.50;63.70;;;;;;10242315;28;93571;-44
2023/10/27 08:01:01;;;;;;;;;;;17.60;63.60;;;;;;10225255;28;94355;-43
2023/10/27 08:06:07;;;;;;;;;;;17.70;63.70;;;;;;10242410;28;93911;-44
2023/10/27 08:11:14;;;;;;;;;;;17.80;63.70;;;;;;10204788;28;93194;-47
2023/10/27 08:16:16;;;;;;;;;;;18.00;63.70;;;;;;10227592;28;93121;-45
2023/10/27 08:21:18;;;;;;;;;;;18.20;63.60;;;;;;10237475;28;93261;-44
2023/10/27 08:26:20;;;;;;;;;;;18.40;63.40;;;;;;10233169;28;95269;-43
2023/10/27 08:31:21;;;;;;;;;;;18.50;63.10;;;;;;10220790;28;96772;-45
2023/10/27 08:36:23;;;;;;;;;;;18.50;63.10;;;;;;10233088;28;95301;-44
2023/10/27 08:41:25;;;;;;;;;;;18.60;63.20;;;;;;10240345;28;94249;-43
2023/10/27 08:46:27;;;;;;;;;;;18.50;63.40;;;;;;10234897;28;92876;-44
2023/10/27 08:51:29;;;;;;;;;;;18.50;63.70;;;;;;10233355;28;94766;-44
2023/10/27 08:56:31;;;;;;;;;;;18.40;63.80;;;;;;10228016;28;94964;-43
2023/10/27 09:01:33;;;;;;;;;;;18.40;64.30;;;;;;10227447;28;94410;-43
2023/10/27 09:06:35;;;;;;;;;;;18.30;64.50;;;;;;10237920;28;94017;-43
2023/10/27 09:11:47;;;;;;;;;;;18.30;64.70;;;;;;10216425;28;93337;-43
2023/10/27 09:16:50;;;;;;;;;;;18.20;64.90;;;;;;10225116;28;94354;-43
2023/10/27 09:21:55;;;;;;;;;;;18.20;65.10;;;;;;10221371;28;95512;-43
2023/10/27 09:26:58;;;;;;;;;;;18.10;65.30;;;;;;10236362;28;96120;-44
2023/10/27 09:32:00;;;;;;;;;;;18.10;65.30;;;;;;10231469;28;94332;-45
2023/10/27 09:37:01;;;;;;;;;;;18.00;65.40;;;;;;10218727;28;93712;-46
2023/10/27 09:42:07;;;;;;;;;;;18.00;65.40;;;;;;10220504;28;93534;-46
2023/10/27 09:47:11;;;;;;;;;;;18.00;65.50;;;;;;10208802;28;94329;-44
2023/10/27 09:52:16;;;;;;;;;;;18.00;65.60;;;;;;10228883;28;93754;-56
2023/10/27 09:57:17;;;;;;;;;;;18.00;65.60;;;;;;10231349;28;94072;-42
2023/10/27 10:02:19;;;;;;;;;;;18.00;65.50;;;;;;10239711;28;92773;-43
2023/10/27 10:07:34;;;;;;;;;;;18.00;65.60;;;;;;10225185;28;93098;-44
2023/10/27 10:12:56;;;;;;;;;;;18.00;65.70;;;;;;10230981;28;95528;-44
2023/10/27 10:18:00;;;;;;;;;;;17.90;65.70;;;;;;10227530;28;103181;-43
2023/10/27 10:23:03;;;;;;;;;;;17.90;66.00;;;;;;10224998;28;94231;-44
2023/10/27 10:28:08;;;;;;;;;;;18.00;67.20;;;;;;10211352;28;94764;-43
2023/10/27 10:33:16;;;;;;;;;;;18.10;67.80;;;;;;10238867;28;93549;-43
2023/10/27 10:38:22;;;;;;;;;;;18.10;67.50;;;;;;10246072;28;92633;-42
2023/10/27 10:43:24;;;;;;;;;;;18.10;66.90;;;;;;10221741;28;93217;-45
2023/10/27 10:48:28;;;;;;;;;;;18.20;67.20;;;;;;10237467;28;95491;-43
2023/10/27 10:53:33;;;;;;;;;;;18.10;67.20;;;;;;10211328;28;94721;-47
2023/10/27 10:58:36;;;;;;;;;;;18.20;67.20;;;;;;10225575;28;93972;-48
2023/10/27 11:03:38;;;;;;;;;;;18.20;67.10;;;;;;10223111;28;96309;-47
2023/10/27 11:08:40;;;;;;;;;;;18.20;66.90;;;;;;10213334;28;95155;-50
2023/10/27 11:13:44;;;;;;;;;;;18.10;67.00;;;;;;10199624;28;92896;-45
2023/10/27 11:18:46;;;;;;;;;;;18.10;67.10;;;;;;10197153;28;94356;-44
2023/10/27 11:23:49;;;;;;;;;;;18.10;67.20;;;;;;10216214;28;94148;-43
2023/10/27 11:28:54;;;;;;;;;;;18.10;67.40;;;;;;10227258;28;95271;-47
2023/10/27 11:34:05;;;;;;;;;;;18.00;67.60;;;;;;10204842;28;94190;-46
2023/10/27 11:39:14;;;;;;;;;;;18.00;67.50;;;;;;10201589;28;92878;-43
2023/10/27 11:44:16;;;;;;;;;;;18.00;67.50;;;;;;10220363;28;93260;-45
2023/10/27 11:49:18;;;;;;;;;;;18.00;68.60;;;;;;10228253;28;92754;-45
2023/10/27 11:54:20;;;;;;;;;;;18.00;67.60;;;;;;10225545;28;96707;-45
2023/10/27 11:59:25;;;;;;;;;;;18.00;67.70;;;;;;10211833;28;97593;-50
2023/10/27 12:04:28;;;;;;;;;;;17.90;67.50;;;;;;10235548;28;94103;-47
2023/10/27 12:09:29;;;;;;;;;;;18.00;67.60;;;;;;10226158;28;95074;-43
2023/10/27 12:14:31;;;;;;;;;;;17.90;67.60;;;;;;10235449;28;92876;-46
2023/10/27 12:19:33;;;;;;;;;;;17.90;67.70;;;;;;10224189;28;92958;-47
2023/10/27 12:24:35;;;;;;;;;;;17.90;67.70;;;;;;10223794;28;93782;-45
2023/10/27 12:29:36;;;;;;;;;;;17.90;67.70;;;;;;10231039;28;93818;-45
2023/10/27 12:34:38;;;;;;;;;;;17.90;67.80;;;;;;10214863;28;93007;-57
2023/10/27 12:39:42;;;;;;;;;;;17.80;67.80;;;;;;10242134;28;93858;-46
2023/10/27 12:44:45;;;;;;;;;;;17.80;68.00;;;;;;10215290;28;95679;-48
2023/10/27 12:49:48;;;;;;;;;;;17.80;68.00;;;;;;10215635;28;96484;-46
2023/10/27 12:54:50;;;;;;;;;;;17.80;67.90;;;;;;10236989;28;93886;-48
2023/10/27 12:59:53;;;;;;;;;;;17.80;68.00;;;;;;10224275;28;93834;-46
2023/10/27 13:04:59;;;;;;;;;;;17.80;67.90;;;;;;10212705;28;93947;-47
2023/10/27 13:10:02;;;;;;;;;;;17.80;68.00;;;;;;10241504;28;92950;-44
2023/10/27 13:15:09;;;;;;;;;;;17.90;68.00;;;;;;10232528;28;92972;-47
2023/10/27 13:20:14;;;;;;;;;;;17.90;68.10;;;;;;10234484;28;92703;-45
2023/10/27 13:25:16;;;;;;;;;;;17.90;68.00;;;;;;10211661;28;93349;-45
2023/10/27 13:30:17;;;;;;;;;;;17.80;68.00;;;;;;10228574;28;93824;-45
2023/10/27 13:35:22;;;;;;;;;;;17.80;68.00;;;;;;10232191;28;95340;-46
2023/10/27 13:40:25;;;;;;;;;;;17.80;67.90;;;;;;10242861;28;93907;-45
2023/10/27 13:45:27;;;;;;;;;;;17.80;67.90;;;;;;10244362;28;93237;-48
2023/10/27 13:50:28;;;;;;;;;;;17.70;67.90;;;;;;10241108;28;92958;-50
2023/10/27 13:55:30;;;;;;;;;;;17.70;68.10;;;;;;10238293;28;93138;-50
2023/10/27 14:00:32;;;;;;;;;;;17.70;67.90;;;;;;10219965;28;93327;-45
2023/10/27 14:05:34;;;;;;;;;;;17.70;67.90;;;;;;10237464;28;93981;-45
2023/10/27 14:10:36;;;;;;;;;;;17.70;68.00;;;;;;10243089;28;93790;-50
2023/10/27 14:15:38;;;;;;;;;;;17.70;68.20;;;;;;10235195;28;93398;-46
2023/10/27 14:20:42;;;;;;;;;;;17.70;68.50;;;;;;10222409;28;93276;-46
2023/10/27 14:25:43;;;;;;;;;;;17.80;68.70;;;;;;10224143;28;96230;-49
2023/10/27 14:30:45;;;;;;;;;;;17.80;68.60;;;;;;10237560;28;95159;-44
2023/10/27 14:35:47;;;;;;;;;;;17.90;71.20;;;;;;10239608;28;94793;-52
2023/10/27 14:40:50;;;;;;;;;;;18.00;70.90;;;;;;10238158;28;93426;-46
2023/10/27 14:45:59;;;;;;;;;;;18.10;70.00;;;;;;10215439;28;94049;-63
2023/10/27 14:51:02;;;;;;;;;;;18.10;71.00;;;;;;10224411;28;93769;-46
2023/10/27 14:56:05;;;;;;;;;;;18.10;71.00;;;;;;10206438;28;94728;-49
2023/10/27 15:01:07;;;;;;;;;;;18.20;72.20;;;;;;10232584;28;93538;-48
2023/10/27 15:06:10;;;;;;;;;;;18.20;72.20;;;;;;10230222;28;93522;-47
2023/10/27 15:11:11;;;;;;;;;;;18.20;73.30;;;;;;10220487;28;93173;-50
2023/10/27 15:16:16;;;;;;;;;;;18.20;72.00;;;;;;10242474;28;95333;-52
2023/10/27 15:21:18;;;;;;;;;;;18.20;72.40;;;;;;10234089;28;95759;-52
2023/10/27 15:26:21;;;;;;;;;;;18.20;72.90;;;;;;10221123;28;93896;-51
2023/10/27 15:31:24;;;;;;;;;;;18.20;72.40;;;;;;10230426;28;93479;-49
2023/10/27 15:36:26;;;;;;;;;;;18.20;72.60;;;;;;10237743;28;93092;-53
2023/10/27 15:41:34;;;;;;;;;;;18.20;72.80;;;;;;10238485;28;94096;-48
2023/10/27 15:46:38;;;;;;;;;;;18.30;72.90;;;;;;10222596;28;93112;-49
2023/10/27 15:51:40;;;;;;;;;;;18.30;73.10;;;;;;10242978;28;93125;-47
2023/10/27 15:56:42;;;;;;;;;;;18.30;73.20;;;;;;10251053;28;94146;-51
2023/10/27 16:01:43;;;;;;;;;;;18.30;72.20;;;;;;10233096;28;93266;-48
2023/10/27 16:06:46;;;;;;;;;;;18.20;70.60;;;;;;10216192;28;95858;-49
2023/10/27 16:11:47;;;;;;;;;;;18.10;70.40;;;;;;10237744;28;95174;-48
2023/10/27 16:16:49;;;;;;;;;;;18.10;70.80;;;;;;10236731;28;94492;-49
2023/10/27 16:21:51;;;;;;;;;;;18.10;71.10;;;;;;10222211;28;93999;-48
2023/10/27 16:26:53;;;;;;;;;;;18.20;70.90;;;;;;10230245;28;92817;-51
2023/10/27 16:31:55;;;;;;;;;;;18.20;71.40;;;;;;10211894;28;94468;-50
2023/10/27 16:36:57;;;;;;;;;;;18.30;72.20;;;;;;10238125;28;93477;-47
2023/10/27 16:41:59;;;;;;;;;;;18.40;73.60;;;;;;10234776;28;92665;-48
2023/10/27 16:47:00;;;;;;;;;;;18.40;72.10;;;;;;10243569;28;93391;-52
2023/10/27 16:52:03;;;;;;;;;;;18.50;71.50;;;;;;10231144;28;92801;-50
2023/10/27 16:57:05;;;;;;;;;;;18.50;72.10;;;;;;10227552;28;96507;-46
2023/10/27 17:02:09;;;;;;;;;;;18.50;72.40;;;;;;10231767;28;96336;-47
2023/10/27 17:07:15;;;;;;;;;;;18.60;72.50;;;;;;10237952;28;92893;-47
2023/10/27 17:12:20;;;;;;;;;;;18.60;72.30;;;;;;10197783;28;95584;-51
2023/10/27 17:17:21;;;;;;;;;;;18.60;72.30;;;;;;10216809;28;93304;-51
2023/10/27 17:22:24;;;;;;;;;;;18.60;72.50;;;;;;10241222;28;93800;-47
2023/10/27 17:27:26;;;;;;;;;;;18.60;72.30;;;;;;10232848;28;94973;-49
2023/10/27 17:32:28;;;;;;;;;;;18.60;73.00;;;;;;10207597;28;92840;-48
2023/10/27 17:37:30;;;;;;;;;;;18.60;73.20;;;;;;10220863;28;93328;-48
2023/10/27 17:42:33;;;;;;;;;;;18.60;73.30;;;;;;10212955;28;93951;-46
2023/10/27 17:47:35;;;;;;;;;;;18.50;73.30;;;;;;10220544;28;96422;-47
2023/10/27 17:52:37;;;;;;;;;;;18.50;73.30;;;;;;10226433;28;96246;-54
2023/10/27 17:57:39;;;;;;;;;;;18.40;73.20;;;;;;10232574;28;93931;-48
2023/10/27 18:02:41;;;;;;;;;;;18.40;73.40;;;;;;10221244;28;94279;-48
2023/10/27 18:07:47;;;;;;;;;;;18.40;73.40;;;;;;10217467;28;93727;-48
2023/10/27 18:12:49;;;;;;;;;;;18.40;73.50;;;;;;10236835;28;93025;-47
2023/10/27 18:17:50;;;;;;;;;;;18.30;73.50;;;;;;10217281;28;94868;-45
2023/10/27 18:22:52;;;;;;;;;;;18.30;73.60;;;;;;10262435;28;93571;-44
2023/10/27 18:27:56;;;;;;;;;;;18.30;73.60;;;;;;10211090;28;92674;-47
2023/10/27 18:33:06;;;;;;;;;;;18.30;73.60;;;;;;10218775;28;92932;-44
2023/10/27 18:38:09;;;;;;;;;;;18.30;73.70;;;;;;10235011;28;95335;-45
2023/10/27 18:43:12;;;;;;;;;;;18.30;73.80;;;;;;10223872;28;96581;-48
2023/10/27 18:48:14;;;;;;;;;;;18.30;73.60;;;;;;10218343;28;93821;-45
2023/10/27 18:53:16;;;;;;;;;;;18.20;73.70;;;;;;10228953;28;93815;-47
2023/10/27 18:58:18;;;;;;;;;;;18.20;73.80;;;;;;10212689;28;94438;-44
2023/10/27 19:03:23;;;;;;;;;;;18.20;73.90;;;;;;10227788;28;93897;-49
2023/10/27 19:08:28;;;;;;;;;;;18.20;74.10;;;;;;10233505;28;93109;-45
2023/10/27 19:13:31;;;;;;;;;;;18.20;74.10;;;;;;10225494;28;92903;-45
2023/10/27 19:18:35;;;;;;;;;;;18.20;73.80;;;;;;10207166;28;94366;-43
2023/10/27 19:23:37;;;;;;;;;;;18.20;73.90;;;;;;10230306;28;92696;-44
2023/10/27 19:28:40;;;;;;;;;;;18.20;73.60;;;;;;10223290;28;95188;-44
2023/10/27 19:33:43;;;;;;;;;;;18.20;73.40;;;;;;10218925;28;95154;-44
2023/10/27 19:38:46;;;;;;;;;;;18.20;73.30;;;;;;10227042;28;95348;-45
2023/10/27 19:43:49;;;;;;;;;;;18.20;73.20;;;;;;10225766;28;92689;-46
2023/10/27 19:48:52;;;;;;;;;;;18.20;73.20;;;;;;10219922;28;95911;-46
2023/10/27 19:53:57;;;;;;;;;;;18.20;73.10;;;;;;10233054;28;93501;-45
2023/10/27 19:58:58;;;;;;;;;;;18.20;73.20;;;;;;10238588;28;95327;-44
2023/10/27 20:04:01;;;;;;;;;;;18.20;73.30;;;;;;10225769;28;93967;-46
2023/10/27 20:09:05;;;;;;;;;;;18.20;73.40;;;;;;10232066;28;92907;-45
2023/10/27 20:14:07;;;;;;;;;;;18.20;73.40;;;;;;10227769;28;92743;-44
2023/10/27 20:19:09;;;;;;;;;;;18.20;73.50;;;;;;10246479;28;95340;-48
2023/10/27 20:24:12;;;;;;;;;;;18.20;73.40;;;;;;10240794;28;96220;-45
2023/10/27 20:29:15;;;;;;;;;;;18.20;73.40;;;;;;10222859;28;93885;-44
2023/10/27 20:34:17;;;;;;;;;;;18.10;73.20;;;;;;10235718;28;93726;-43
2023/10/27 20:39:19;;;;;;;;;;;18.10;73.10;;;;;;10212800;28;94759;-45
2023/10/27 20:44:21;;;;;;;;;;;18.10;73.10;;;;;;10231060;28;92984;-45
2023/10/27 20:49:24;;;;;;;;;;;18.10;73.20;;;;;;10240117;28;93223;-44
2023/10/27 20:54:25;;;;;;;;;;;18.10;73.00;;;;;;10222317;28;93164;-44
2023/10/27 20:59:27;;;;;;;;;;;18.10;73.00;;;;;;10220389;28;92788;-46
2023/10/27 21:04:29;;;;;;;;;;;18.10;73.00;;;;;;10222727;28;93992;-46
2023/10/27 21:09:31;;;;;;;;;;;18.00;72.80;;;;;;10242755;28;95274;-45
2023/10/27 21:14:33;;;;;;;;;;;18.00;72.80;;;;;;10229442;28;96185;-44
2023/10/27 21:19:35;;;;;;;;;;;18.00;72.70;;;;;;10212457;28;94118;-46
2023/10/27 21:24:37;;;;;;;;;;;18.00;72.70;;;;;;10212926;28;93247;-51
2023/10/27 21:29:38;;;;;;;;;;;18.00;72.70;;;;;;10236356;28;92853;-46
2023/10/27 21:34:41;;;;;;;;;;;18.00;72.60;;;;;;10232390;28;92631;-45
2023/10/27 21:39:50;;;;;;;;;;;17.90;72.50;;;;;;10242268;28;94612;-45
2023/10/27 21:44:52;;;;;;;;;;;18.00;72.60;;;;;;10224441;28;94175;-44
2023/10/27 21:49:54;;;;;;;;;;;17.90;72.60;;;;;;10235431;28;93069;-44
2023/10/27 21:54:56;;;;;;;;;;;17.90;72.50;;;;;;10240068;28;93607;-44
2023/10/27 21:59:57;;;;;;;;;;;17.90;72.50;;;;;;10240885;28;95984;-48
2023/10/27 22:05:02;;;;;;;;;;;17.90;72.50;;;;;;10243587;28;95046;-44
2023/10/27 22:10:05;;;;;;;;;;;17.80;72.30;;;;;;10235576;28;93861;-44
2023/10/27 22:15:08;;;;;;;;;;;17.80;72.30;;;;;;10211521;28;93697;-47
2023/10/27 22:20:10;;;;;;;;;;;17.80;72.20;;;;;;10214529;28;93281;-44
2023/10/27 22:25:12;;;;;;;;;;;17.80;72.30;;;;;;10203216;28;93809;-44
2023/10/27 22:30:14;;;;;;;;;;;17.70;72.20;;;;;;10221862;28;93541;-60
2023/10/27 22:35:17;;;;;;;;;;;17.70;72.20;;;;;;10246975;28;93579;-44
2023/10/27 22:40:19;;;;;;;;;;;17.70;72.10;;;;;;10238086;28;93051;-45
2023/10/27 22:45:21;;;;;;;;;;;17.70;72.00;;;;;;10233804;28;94393;-46
2023/10/27 22:50:23;;;;;;;;;;;17.60;72.00;;;;;;10230163;28;95150;-45
2023/10/27 22:55:26;;;;;;;;;;;17.60;73.00;;;;;;10240200;28;95207;-45
2023/10/27 23:00:28;;;;;;;;;;;17.60;71.90;;;;;;10216697;28;92913;-44
2023/10/27 23:05:32;;;;;;;;;;;17.60;71.90;;;;;;10242731;28;93576;-47
2023/10/27 23:10:34;;;;;;;;;;;17.60;71.90;;;;;;10214465;28;92752;-45
2023/10/27 23:15:36;;;;;;;;;;;17.50;71.80;;;;;;10220673;28;93258;-45
2023/10/27 23:20:38;;;;;;;;;;;17.50;71.80;;;;;;10236645;28;93788;-47
2023/10/27 23:25:41;;;;;;;;;;;17.50;71.80;;;;;;10216268;28;93678;-47
2023/10/27 23:30:47;;;;;;;;;;;17.50;71.70;;;;;;10239978;28;93481;-44
2023/10/27 23:35:55;;;;;;;;;;;17.50;71.70;;;;;;10210424;28;93340;-48
2023/10/27 23:40:58;;;;;;;;;;;17.50;71.70;;;;;;10228494;28;96829;-44
2023/10/27 23:46:00;;;;;;;;;;;17.40;71.60;;;;;;10235633;28;95138;-45
2023/10/27 23:51:02;;;;;;;;;;;17.40;71.60;;;;;;10231402;28;94128;-46
2023/10/27 23:56:04;;;;;;;;;;;17.40;71.50;;;;;;10216742;28;93660;-46
